sensor_id;sensor_type;location;lat;lon;timestamp;temperature;humidity
23445;DHT22;11895;48.738;9.320;2023-05-07T00:00:56;14.40;99.90
23445;DHT22;11895;48.738;9.320;2023-05-07T00:03:26;14.40;99.90
23445;DHT22;11895;48.738;9.320;2023-05-07T00:05:54;14.10;99.90
23445;DHT22;11895;48.738;9.320;2023-05-07T00:08:21;14.30;99.90
23445;DHT22;11895;48.738;9.320;2023-05-07T00:10:48;14.40;99.90
23445;DHT22;11895;48.738;9.320;2023-05-07T00:13:17;15.70;99.90
23445;DHT22;11895;48.738;9.320;2023-05-07T00:15:44;14.30;99.90
23445;DHT22;11895;48.738;9.320;2023-05-07T00:18:11;14.40;99.90
23445;DHT22;11895;48.738;9.320;2023-05-07T00:20:39;14.50;99.90
23445;DHT22;11895;48.738;9.320;2023-05-07T00:23:06;14.20;99.90
23445;DHT22;11895;48.738;9.320;2023-05-07T00:25:40;14.20;99.90
23445;DHT22;11895;48.738;9.320;2023-05-07T00:28:07;14.00;99.90
23445;DHT22;11895;48.738;9.320;2023-05-07T00:30:35;14.10;99.90
23445;DHT22;11895;48.738;9.320;2023-05-07T00:33:02;14.20;99.90
23445;DHT22;11895;48.738;9.320;2023-05-07T00:35:30;14.20;99.90
23445;DHT22;11895;48.738;9.320;2023-05-07T00:37:58;14.30;99.90
23445;DHT22;11895;48.738;9.320;2023-05-07T00:40:26;14.30;99.90
23445;DHT22;11895;48.738;9.320;2023-05-07T00:42:53;14.10;99.90
23445;DHT22;11895;48.738;9.320;2023-05-07T00:45:27;14.10;99.90
23445;DHT22;11895;48.738;9.320;2023-05-07T00:47:58;14.10;99.90
23445;DHT22;11895;48.738;9.320;2023-05-07T00:50:28;14.90;99.90
23445;DHT22;11895;48.738;9.320;2023-05-07T00:52:56;14.00;99.90
23445;DHT22;11895;48.738;9.320;2023-05-07T00:55:24;15.20;99.90
23445;DHT22;11895;48.738;9.320;2023-05-07T00:57:52;14.10;99.90
23445;DHT22;11895;48.738;9.320;2023-05-07T01:00:19;14.20;99.90
23445;DHT22;11895;48.738;9.320;2023-05-07T01:02:46;14.70;99.90
23445;DHT22;11895;48.738;9.320;2023-05-07T01:05:16;14.10;99.90
23445;DHT22;11895;48.738;9.320;2023-05-07T01:07:47;13.90;99.90
23445;DHT22;11895;48.738;9.320;2023-05-07T01:10:17;13.90;99.90
23445;DHT22;11895;48.738;9.320;2023-05-07T01:12:46;13.90;99.90
23445;DHT22;11895;48.738;9.320;2023-05-07T01:15:16;13.90;99.90
23445;DHT22;11895;48.738;9.320;2023-05-07T01:17:45;13.80;99.90
23445;DHT22;11895;48.738;9.320;2023-05-07T01:20:25;13.70;99.90
23445;DHT22;11895;48.738;9.320;2023-05-07T01:22:55;13.50;99.90
23445;DHT22;11895;48.738;9.320;2023-05-07T01:30:26;13.80;99.90
23445;DHT22;11895;48.738;9.320;2023-05-07T01:34:42;13.70;99.90
23445;DHT22;11895;48.738;9.320;2023-05-07T01:37:12;13.80;99.90
23445;DHT22;11895;48.738;9.320;2023-05-07T01:39:42;14.50;99.90
23445;DHT22;11895;48.738;9.320;2023-05-07T01:42:10;13.80;99.90
23445;DHT22;11895;48.738;9.320;2023-05-07T01:44:37;13.70;99.90
23445;DHT22;11895;48.738;9.320;2023-05-07T01:47:04;13.70;99.90
23445;DHT22;11895;48.738;9.320;2023-05-07T01:49:33;13.60;99.90
23445;DHT22;11895;48.738;9.320;2023-05-07T01:52:00;13.70;99.90
23445;DHT22;11895;48.738;9.320;2023-05-07T01:54:28;14.50;99.90
23445;DHT22;11895;48.738;9.320;2023-05-07T01:56:57;13.60;99.90
23445;DHT22;11895;48.738;9.320;2023-05-07T01:59:25;13.40;99.90
23445;DHT22;11895;48.738;9.320;2023-05-07T02:01:53;13.50;99.90
23445;DHT22;11895;48.738;9.320;2023-05-07T02:04:21;13.60;99.90
23445;DHT22;11895;48.738;9.320;2023-05-07T02:06:50;14.90;99.90
23445;DHT22;11895;48.738;9.320;2023-05-07T02:09:17;13.70;99.90
23445;DHT22;11895;48.738;9.320;2023-05-07T02:11:47;14.70;99.90
23445;DHT22;11895;48.738;9.320;2023-05-07T02:14:16;13.60;99.90
23445;DHT22;11895;48.738;9.320;2023-05-07T02:16:43;14.00;99.90
23445;DHT22;11895;48.738;9.320;2023-05-07T02:19:13;13.20;99.90
23445;DHT22;11895;48.738;9.320;2023-05-07T02:21:41;13.40;99.90
23445;DHT22;11895;48.738;9.320;2023-05-07T02:24:09;13.30;99.90
23445;DHT22;11895;48.738;9.320;2023-05-07T02:26:36;13.40;99.90
23445;DHT22;11895;48.738;9.320;2023-05-07T02:29:03;13.40;99.90
23445;DHT22;11895;48.738;9.320;2023-05-07T02:31:31;13.30;99.90
23445;DHT22;11895;48.738;9.320;2023-05-07T02:34:00;14.00;99.90
23445;DHT22;11895;48.738;9.320;2023-05-07T02:36:28;13.30;99.90
23445;DHT22;11895;48.738;9.320;2023-05-07T02:39:09;13.60;99.90
23445;DHT22;11895;48.738;9.320;2023-05-07T02:41:37;13.20;99.90
23445;DHT22;11895;48.738;9.320;2023-05-07T02:44:04;13.60;99.90
23445;DHT22;11895;48.738;9.320;2023-05-07T02:46:32;13.20;99.90
23445;DHT22;11895;48.738;9.320;2023-05-07T02:49:04;13.00;99.90
23445;DHT22;11895;48.738;9.320;2023-05-07T02:51:31;14.00;99.90
23445;DHT22;11895;48.738;9.320;2023-05-07T02:54:02;12.90;99.90
23445;DHT22;11895;48.738;9.320;2023-05-07T02:56:30;13.00;99.90
23445;DHT22;11895;48.738;9.320;2023-05-07T02:58:58;13.00;99.90
23445;DHT22;11895;48.738;9.320;2023-05-07T03:01:29;13.10;99.90
23445;DHT22;11895;48.738;9.320;2023-05-07T03:04:03;12.80;99.90
23445;DHT22;11895;48.738;9.320;2023-05-07T03:06:31;12.80;99.90
23445;DHT22;11895;48.738;9.320;2023-05-07T03:08:58;12.50;99.90
23445;DHT22;11895;48.738;9.320;2023-05-07T03:11:26;12.90;99.90
23445;DHT22;11895;48.738;9.320;2023-05-07T03:13:53;12.50;99.90
23445;DHT22;11895;48.738;9.320;2023-05-07T03:16:21;12.80;99.90
23445;DHT22;11895;48.738;9.320;2023-05-07T03:18:49;12.60;99.90
23445;DHT22;11895;48.738;9.320;2023-05-07T03:21:16;12.60;99.90
23445;DHT22;11895;48.738;9.320;2023-05-07T03:23:43;12.70;99.90
23445;DHT22;11895;48.738;9.320;2023-05-07T03:26:11;12.60;99.90
23445;DHT22;11895;48.738;9.320;2023-05-07T03:28:38;13.10;99.90
23445;DHT22;11895;48.738;9.320;2023-05-07T03:31:10;12.90;99.90
23445;DHT22;11895;48.738;9.320;2023-05-07T03:33:55;12.50;99.90
23445;DHT22;11895;48.738;9.320;2023-05-07T03:36:25;12.60;99.90
23445;DHT22;11895;48.738;9.320;2023-05-07T03:38:55;12.50;99.90
23445;DHT22;11895;48.738;9.320;2023-05-07T03:41:29;12.20;99.90
23445;DHT22;11895;48.738;9.320;2023-05-07T03:43:56;12.30;99.90
23445;DHT22;11895;48.738;9.320;2023-05-07T03:46:24;12.50;99.90
23445;DHT22;11895;48.738;9.320;2023-05-07T03:48:53;12.30;99.90
23445;DHT22;11895;48.738;9.320;2023-05-07T03:51:20;12.10;99.90
23445;DHT22;11895;48.738;9.320;2023-05-07T03:53:48;12.10;99.90
23445;DHT22;11895;48.738;9.320;2023-05-07T03:56:17;12.20;99.90
23445;DHT22;11895;48.738;9.320;2023-05-07T03:58:47;12.30;99.90
23445;DHT22;11895;48.738;9.320;2023-05-07T04:01:15;12.20;99.90
23445;DHT22;11895;48.738;9.320;2023-05-07T04:03:43;12.20;99.90
23445;DHT22;11895;48.738;9.320;2023-05-07T04:06:10;12.10;99.90
23445;DHT22;11895;48.738;9.320;2023-05-07T04:08:40;12.10;99.90
23445;DHT22;11895;48.738;9.320;2023-05-07T04:11:07;12.10;99.90
23445;DHT22;11895;48.738;9.320;2023-05-07T04:13:36;12.20;99.90
23445;DHT22;11895;48.738;9.320;2023-05-07T04:16:06;12.20;99.90
23445;DHT22;11895;48.738;9.320;2023-05-07T04:18:35;12.30;99.90
23445;DHT22;11895;48.738;9.320;2023-05-07T04:21:03;12.20;99.90
23445;DHT22;11895;48.738;9.320;2023-05-07T04:23:33;12.20;99.90
23445;DHT22;11895;48.738;9.320;2023-05-07T04:26:04;12.30;99.90
23445;DHT22;11895;48.738;9.320;2023-05-07T04:28:37;12.10;99.90
23445;DHT22;11895;48.738;9.320;2023-05-07T04:31:05;12.10;99.90
23445;DHT22;11895;48.738;9.320;2023-05-07T04:33:35;12.20;99.90
23445;DHT22;11895;48.738;9.320;2023-05-07T04:36:04;12.20;99.90
23445;DHT22;11895;48.738;9.320;2023-05-07T04:38:37;12.20;99.90
23445;DHT22;11895;48.738;9.320;2023-05-07T04:41:06;12.30;99.90
23445;DHT22;11895;48.738;9.320;2023-05-07T04:43:39;12.20;99.90
23445;DHT22;11895;48.738;9.320;2023-05-07T04:46:06;12.40;99.90
23445;DHT22;11895;48.738;9.320;2023-05-07T04:48:34;12.40;99.90
23445;DHT22;11895;48.738;9.320;2023-05-07T04:51:04;12.30;99.90
23445;DHT22;11895;48.738;9.320;2023-05-07T04:53:31;12.50;99.90
23445;DHT22;11895;48.738;9.320;2023-05-07T04:55:59;12.30;99.90
23445;DHT22;11895;48.738;9.320;2023-05-07T04:58:33;12.70;99.90
23445;DHT22;11895;48.738;9.320;2023-05-07T05:01:00;12.40;99.90
23445;DHT22;11895;48.738;9.320;2023-05-07T05:03:29;12.30;99.90
23445;DHT22;11895;48.738;9.320;2023-05-07T05:05:57;11.80;99.90
23445;DHT22;11895;48.738;9.320;2023-05-07T05:08:30;12.30;99.90
23445;DHT22;11895;48.738;9.320;2023-05-07T05:11:01;13.20;99.90
23445;DHT22;11895;48.738;9.320;2023-05-07T05:13:31;12.20;99.90
23445;DHT22;11895;48.738;9.320;2023-05-07T05:16:02;13.30;99.90
23445;DHT22;11895;48.738;9.320;2023-05-07T05:18:31;12.50;99.90
23445;DHT22;11895;48.738;9.320;2023-05-07T05:21:00;12.70;99.90
23445;DHT22;11895;48.738;9.320;2023-05-07T05:23:28;13.20;99.90
23445;DHT22;11895;48.738;9.320;2023-05-07T05:25:57;12.80;99.90
23445;DHT22;11895;48.738;9.320;2023-05-07T05:28:28;12.90;99.90
23445;DHT22;11895;48.738;9.320;2023-05-07T05:30:56;12.90;99.90
23445;DHT22;11895;48.738;9.320;2023-05-07T05:33:25;12.90;99.90
23445;DHT22;11895;48.738;9.320;2023-05-07T05:35:56;12.70;99.90
23445;DHT22;11895;48.738;9.320;2023-05-07T05:38:23;13.20;99.90
23445;DHT22;11895;48.738;9.320;2023-05-07T05:40:51;13.50;99.90
23445;DHT22;11895;48.738;9.320;2023-05-07T05:43:21;13.50;99.90
23445;DHT22;11895;48.738;9.320;2023-05-07T05:45:48;13.60;99.90
23445;DHT22;11895;48.738;9.320;2023-05-07T05:48:15;14.00;99.90
23445;DHT22;11895;48.738;9.320;2023-05-07T05:50:43;13.90;99.90
23445;DHT22;11895;48.738;9.320;2023-05-07T05:53:10;13.90;99.90
23445;DHT22;11895;48.738;9.320;2023-05-07T05:55:38;14.70;99.90
23445;DHT22;11895;48.738;9.320;2023-05-07T05:58:06;14.00;99.90
23445;DHT22;11895;48.738;9.320;2023-05-07T06:00:39;14.50;99.90
23445;DHT22;11895;48.738;9.320;2023-05-07T06:03:07;14.40;99.90
23445;DHT22;11895;48.738;9.320;2023-05-07T06:05:36;14.70;99.90
23445;DHT22;11895;48.738;9.320;2023-05-07T06:08:03;15.10;99.90
23445;DHT22;11895;48.738;9.320;2023-05-07T06:10:33;14.90;99.90
23445;DHT22;11895;48.738;9.320;2023-05-07T06:13:01;15.10;99.90
23445;DHT22;11895;48.738;9.320;2023-05-07T06:15:30;15.20;99.90
23445;DHT22;11895;48.738;9.320;2023-05-07T06:18:02;15.30;99.90
23445;DHT22;11895;48.738;9.320;2023-05-07T06:20:29;15.30;99.90
23445;DHT22;11895;48.738;9.320;2023-05-07T06:22:58;15.60;99.90
23445;DHT22;11895;48.738;9.320;2023-05-07T06:25:32;15.80;99.90
23445;DHT22;11895;48.738;9.320;2023-05-07T06:27:59;16.10;99.90
23445;DHT22;11895;48.738;9.320;2023-05-07T06:30:27;16.50;99.90
23445;DHT22;11895;48.738;9.320;2023-05-07T06:32:55;16.60;99.90
23445;DHT22;11895;48.738;9.320;2023-05-07T06:35:22;16.80;99.90
23445;DHT22;11895;48.738;9.320;2023-05-07T06:37:51;17.30;99.90
23445;DHT22;11895;48.738;9.320;2023-05-07T06:40:23;17.20;99.90
23445;DHT22;11895;48.738;9.320;2023-05-07T06:42:50;17.20;99.90
23445;DHT22;11895;48.738;9.320;2023-05-07T06:45:27;17.20;99.90
23445;DHT22;11895;48.738;9.320;2023-05-07T06:47:56;17.20;99.90
23445;DHT22;11895;48.738;9.320;2023-05-07T06:50:24;17.20;99.90
23445;DHT22;11895;48.738;9.320;2023-05-07T06:52:57;17.30;99.90
23445;DHT22;11895;48.738;9.320;2023-05-07T06:55:26;17.70;99.90
23445;DHT22;11895;48.738;9.320;2023-05-07T06:57:55;17.70;99.90
23445;DHT22;11895;48.738;9.320;2023-05-07T07:00:26;17.40;99.90
23445;DHT22;11895;48.738;9.320;2023-05-07T07:02:55;16.90;99.90
23445;DHT22;11895;48.738;9.320;2023-05-07T07:05:26;17.30;99.90
23445;DHT22;11895;48.738;9.320;2023-05-07T07:07:55;17.40;99.90
23445;DHT22;11895;48.738;9.320;2023-05-07T07:12:56;17.70;99.90
23445;DHT22;11895;48.738;9.320;2023-05-07T07:15:24;18.10;99.90
23445;DHT22;11895;48.738;9.320;2023-05-07T07:17:53;18.10;99.90
23445;DHT22;11895;48.738;9.320;2023-05-07T07:20:27;18.20;99.90
23445;DHT22;11895;48.738;9.320;2023-05-07T07:22:55;20.00;99.90
23445;DHT22;11895;48.738;9.320;2023-05-07T07:25:22;18.50;99.90
23445;DHT22;11895;48.738;9.320;2023-05-07T07:27:51;18.70;99.90
23445;DHT22;11895;48.738;9.320;2023-05-07T07:30:20;19.00;99.90
23445;DHT22;11895;48.738;9.320;2023-05-07T07:32:49;18.90;99.90
23445;DHT22;11895;48.738;9.320;2023-05-07T07:35:17;18.90;99.90
23445;DHT22;11895;48.738;9.320;2023-05-07T07:37:45;19.60;99.90
23445;DHT22;11895;48.738;9.320;2023-05-07T07:40:14;19.90;99.90
23445;DHT22;11895;48.738;9.320;2023-05-07T07:42:42;19.70;99.90
23445;DHT22;11895;48.738;9.320;2023-05-07T14:38:59;14.60;99.90
